Flight Track Log - Related Links

Times and Time Zones

All times are in EDT time to prevent confusion due to time zone crossing. See the ASQ4892 flight status page for this flight to view local times or setup timezone preferences in your user account.


Time Position Orientation Groundspeed Altitude Reporting Facility
EDT Latitude Longitude Course Direction KTS MPH feet Rate Location/Type
Wed 12:52:57 PM 36.0814 -94.1811 102° East 279 321 9,500  Level Memphis Center
Wed 12:53:57 PM 36.0844 -94.0811 88° East 257 296 11,800 1,850 Climbing Memphis Center
Wed 12:54:57 PM 36.0889 -93.9939 86° East 271 312 13,200 1,550 Climbing Memphis Center
Wed 12:55:57 PM 36.0925 -93.8733 88° East 299 344 14,900 1,633 Climbing Memphis Center
Wed 12:56:00 PM 36.1760 -93.7724 102° East  Level FlightAware Approximate
Wed 12:57:00 PM 36.1610 -93.6823 102° East  Level FlightAware Approximate
Wed 12:57:00 PM 36.0694 -93.7812 102° East  Level Estimated
Wed 12:57:57 PM 36.1092 -93.6378 102° East 338 389 18,100  Level Memphis Center
Wed 12:58:00 PM 36.1459 -93.5922 102° East  Level FlightAware Approximate
Wed 12:58:57 PM 36.1189 -93.5122 84° East 351 404 19,200  Level Memphis Center
Wed 12:59:57 PM 36.1156 -93.3889 92° East 356 410 20,300 1,100 Climbing Memphis Center
Wed 01:00:57 PM 36.0917 -93.2594 103° East 370 426 21,400 1,100 Climbing Memphis Center
Wed 01:01:57 PM 36.0694 -93.1328 102° East 370 426 22,500 1,100 Climbing Memphis Center
Wed 01:02:57 PM 36.0497 -92.9883 100° East 377 434 23,600 843 Climbing Memphis Center
Wed 01:03:58 PM 36.0253 -92.8567 103° East 377 434 24,200 600 Climbing Memphis Center
Wed 01:04:57 PM 36.0008 -92.7200 102° East 390 449 24,800 403 Climbing Memphis Center
Wed 01:05:57 PM 35.9761 -92.5886 103° East 395 455 25,000 100 Climbing Memphis Center
Wed 01:06:57 PM 35.9511 -92.4597 103° East 395 455 25,000  Level Memphis Center
Wed 01:07:57 PM 35.9283 -92.3258 102° East 400 460 25,000  Level Memphis Center
Wed 01:08:57 PM 35.9033 -92.1944 103° East 395 455 25,000 -450 Level Memphis Center
Wed 01:09:57 PM 35.8739 -92.0581 105° East 400 460 24,100 -500 Descending Memphis Center
Wed 01:10:57 PM 35.8567 -91.9372 100° East 400 460 24,000 -50 Descending Memphis Center
Wed 01:11:57 PM 35.8314 -91.8036 103° East 395 455 24,000  Level Memphis Center
Wed 01:12:57 PM 35.7911 -91.6725 111° Southeast 400 460 24,000  Level Memphis Center
Wed 01:13:57 PM 35.7422 -91.5464 116° Southeast 410 472 24,000 -400 Level Memphis Center
Wed 01:14:57 PM 35.6914 -91.4025 113° Southeast 410 472 23,200 -1,388 Descending Memphis Center
Wed 01:15:58 PM 35.6547 -91.3025 114° Southeast 384 442 21,200 -2,100 Descending Memphis Center
Wed 01:16:57 PM 35.6094 -91.1819 115° Southeast 357 411 19,000 -2,000 Descending Memphis Center
Wed 01:17:58 PM 35.5728 -91.0844 115° Southeast 328 377 17,200 -1,736 Descending Memphis Center
Wed 01:18:58 PM 35.5356 -90.9822 114° Southeast 316 364 15,500 -1,800 Descending Memphis Center
Wed 01:19:58 PM 35.5006 -90.8850 114° Southeast 316 364 13,600 -1,916 Descending Memphis Center
Wed 01:20:57 PM 35.4636 -90.7853 114° Southeast 325 374 11,700 -1,750 Descending Memphis Center
Wed 01:21:58 PM 35.4261 -90.6831 114° Southeast 319 367 10,100 -843 Descending Memphis Center
Wed 01:22:58 PM 35.4203 -90.5889 94° East 293 337 10,000 -706 Descending Memphis Center
Wed 01:23:57 PM 35.4161 -90.5125 94° East 239 275 8,700 -1,250 Descending Memphis Center
Wed 01:24:58 PM 35.4142 -90.4461 92° East 226 260 7,500 -1,350 Descending Memphis Center
Wed 01:25:57 PM 35.4161 -90.3697 88° East 219 252 6,000 -756 Descending Memphis Center
Wed 01:26:57 PM 35.4183 -90.2983 88° East 213 245 6,000  Level Memphis Center
Wed 01:27:58 PM 35.4203 -90.2244 88° East 213 245 6,000  Level Memphis Center
Wed 01:28:57 PM 35.4244 -90.1481 86° East 218 251 6,000 -450 Level Memphis Center
Wed 01:29:58 PM 35.4242 -90.0794 90° East 212 244 5,100 -992 Descending Memphis Center
Wed 01:30:58 PM 35.3844 -90.0286 134° Southeast 191 220 4,000 -550 Descending Memphis Center
Wed 01:31:58 PM 35.3322 -89.9956 153° Southeast 186 214 4,000  Level Memphis Center
Wed 01:32:32 PM 35.3000 -89.9833 163° South 206 237 4,000 -64 Level Memphis TRACON
Wed 01:33:32 PM 35.2500 -89.9833 180° South 204 235 3,900 -667 Descending Memphis TRACON
Wed 01:35:32 PM 35.1333 -89.9833 180° South 163 188 2,000 -872 Descending Memphis TRACON
Wed 01:36:31 PM 35.1000 -89.9833 180° South 139 160 1,300 -700 Descending Memphis TRACON
Wed 01:37:32 PM 35.0667 -89.9833 180° South 131 151 600 -689 Descending Memphis TRACON

Login

Don't have an account? Register now (free) for customized features, flight alerts, and more!